Time;durP1;ratioP1;P1;durP2;ratioP2;P2;SDS_P1;SDS_P2;PMS_P1;PMS_P2;Temp;Humidity;BMP_temperature;BMP_pressure;BME280_temperature;BME280_humidity;BME280_pressure;Samples;Min_cycle;Max_cycle;Signal;HPM_P1;HPM_P2
2023/04/01 00:01:31;;;;;;;6.68;4.15;;;10.60;89.90;;;;;;5045195;28;20064;-76
2023/04/01 00:03:57;;;;;;;4.82;3.92;;;10.60;89.90;;;;;;5020098;28;20124;-76
2023/04/01 00:06:23;;;;;;;5.55;4.05;;;10.60;90.10;;;;;;5029191;28;20129;-76
2023/04/01 00:08:49;;;;;;;6.18;4.55;;;10.60;89.90;;;;;;5046211;28;20450;-76
2023/04/01 00:11:16;;;;;;;6.00;4.38;;;10.60;90.00;;;;;;5045505;28;20116;-76
2023/04/01 00:13:42;;;;;;;5.25;3.92;;;10.60;90.00;;;;;;5012724;28;20500;-76
2023/04/01 00:16:08;;;;;;;5.60;4.00;;;10.60;90.00;;;;;;5045475;28;20099;-76
2023/04/01 00:18:34;;;;;;;6.38;3.80;;;10.60;90.00;;;;;;5045722;28;20030;-76
2023/04/01 00:20:59;;;;;;;5.38;4.28;;;10.60;90.00;;;;;;5045594;28;20071;-76
2023/04/01 00:23:25;;;;;;;5.07;3.92;;;10.60;90.00;;;;;;4995963;28;20448;-77
2023/04/01 00:25:51;;;;;;;4.90;4.00;;;10.60;90.00;;;;;;5012716;28;20041;-76
2023/04/01 00:28:19;;;;;;;6.93;4.60;;;10.60;90.00;;;;;;5045457;28;20037;-76
2023/04/01 00:30:45;;;;;;;5.07;3.92;;;10.60;90.10;;;;;;5028471;28;20044;-76
2023/04/01 00:33:12;;;;;;;5.35;3.78;;;10.60;90.10;;;;;;5029093;28;20042;-76
2023/04/01 00:35:38;;;;;;;6.65;3.85;;;10.60;90.30;;;;;;5028688;28;20042;-76
2023/04/01 00:38:05;;;;;;;4.80;3.78;;;10.60;90.10;;;;;;4996303;28;20045;-77
2023/04/01 00:40:44;;;;;;;6.18;4.28;;;10.60;90.10;;;;;;5014210;28;20045;-76
2023/04/01 00:43:19;;;;;;;5.18;4.13;;;10.60;90.10;;;;;;5045335;28;20049;-76
2023/04/01 00:45:46;;;;;;;7.82;4.70;;;10.60;90.10;;;;;;5045278;28;20104;-76
2023/04/01 00:48:17;;;;;;;5.72;4.07;;;10.60;90.10;;;;;;5045517;28;20121;-76
2023/04/01 00:50:48;;;;;;;5.75;3.92;;;10.60;90.10;;;;;;5045081;28;20045;-76
2023/04/01 00:53:15;;;;;;;5.72;4.00;;;10.60;90.10;;;;;;4992910;28;20049;-76
2023/04/01 00:55:47;;;;;;;6.13;4.53;;;10.60;90.10;;;;;;4994706;28;20399;-76
2023/04/01 00:58:16;;;;;;;5.55;4.15;;;10.60;90.10;;;;;;5012409;28;20151;-76
2023/04/01 01:00:43;;;;;;;5.68;3.92;;;10.60;90.20;;;;;;5011870;28;20042;-76
2023/04/01 01:03:09;;;;;;;5.00;3.83;;;10.60;90.20;;;;;;5011691;28;20128;-76
2023/04/01 01:06:13;;;;;;;7.63;4.75;;;10.60;90.20;;;;;;4979138;28;20057;-76
2023/04/01 01:09:09;;;;;;;5.43;4.15;;;10.60;90.20;;;;;;5011217;28;20052;-76
2023/04/01 01:11:44;;;;;;;5.55;4.25;;;10.60;90.20;;;;;;5015728;28;20107;-76
2023/04/01 01:14:36;;;;;;;5.57;4.40;;;10.60;90.20;;;;;;5043939;28;20038;-76
2023/04/01 01:17:15;;;;;;;5.95;4.75;;;10.60;90.20;;;;;;5001851;28;20046;-76
2023/04/01 01:20:01;;;;;;;6.60;4.43;;;10.60;90.20;;;;;;5016852;28;20075;-76
2023/04/01 01:22:36;;;;;;;5.55;4.50;;;10.60;90.30;;;;;;5009573;28;20046;-76
2023/04/01 01:25:27;;;;;;;8.45;4.82;;;10.60;90.30;;;;;;5011977;28;20052;-76
2023/04/01 01:28:20;;;;;;;7.47;4.45;;;10.60;90.30;;;;;;5012142;28;20045;-76
2023/04/01 01:31:00;;;;;;;5.95;4.25;;;10.60;90.20;;;;;;5011447;28;20053;-76
2023/04/01 01:33:53;;;;;;;7.82;4.50;;;10.60;90.30;;;;;;5045157;28;20086;-76
2023/04/01 01:36:20;;;;;;;6.40;4.45;;;10.60;90.30;;;;;;5048686;28;20049;-76
2023/04/01 01:38:48;;;;;;;7.13;6.13;;;10.60;90.20;;;;;;5015689;28;20187;-76
2023/04/01 01:41:17;;;;;;;9.38;6.75;;;10.60;90.30;;;;;;5022653;28;20034;-76
2023/04/01 01:43:47;;;;;;;7.95;6.60;;;10.60;90.30;;;;;;5033505;28;20440;-76
2023/04/01 01:46:17;;;;;;;8.48;6.72;;;10.60;90.30;;;;;;5048818;28;20359;-76
2023/04/01 01:48:45;;;;;;;10.75;8.20;;;10.60;90.30;;;;;;5048362;28;20073;-76
2023/04/01 01:51:11;;;;;;;11.15;8.57;;;10.60;90.30;;;;;;5048326;28;20046;-76
2023/04/01 01:53:37;;;;;;;8.52;6.85;;;10.60;90.30;;;;;;5031688;28;20129;-76
2023/04/01 01:56:04;;;;;;;9.98;7.25;;;10.60;90.30;;;;;;5035274;28;20124;-76
2023/04/01 01:58:40;;;;;;;10.98;8.32;;;10.60;90.30;;;;;;5019221;28;20042;-76
2023/04/01 02:01:17;;;;;;;7.47;5.07;;;10.60;90.30;;;;;;5015234;28;20041;-76
2023/04/01 02:03:44;;;;;;;8.90;5.95;;;10.70;90.40;;;;;;5015074;28;20058;-76
2023/04/01 02:06:14;;;;;;;7.25;4.80;;;10.60;90.30;;;;;;4998342;28;20489;-76
2023/04/01 02:08:44;;;;;;;6.68;4.72;;;10.60;90.30;;;;;;5014982;28;20476;-76
2023/04/01 02:11:13;;;;;;;8.50;5.13;;;10.60;90.30;;;;;;5015089;28;20401;-76
2023/04/01 02:13:41;;;;;;;6.45;4.82;;;10.60;90.30;;;;;;5015620;28;20133;-76
2023/04/01 02:16:21;;;;;;;6.72;5.00;;;10.60;90.30;;;;;;5024469;28;20041;-76
2023/04/01 02:18:50;;;;;;;5.70;4.65;;;10.60;90.30;;;;;;5047817;28;20188;-76
2023/04/01 02:21:18;;;;;;;7.18;4.72;;;10.60;90.30;;;;;;5014723;28;20058;-76
2023/04/01 02:23:46;;;;;;;5.45;4.63;;;10.60;90.30;;;;;;5048003;28;20069;-76
2023/04/01 02:26:14;;;;;;;7.47;4.78;;;10.60;90.30;;;;;;5024428;28;20124;-76
2023/04/01 02:28:42;;;;;;;7.45;5.38;;;10.60;90.30;;;;;;5031094;28;20049;-76
2023/04/01 02:31:10;;;;;;;6.65;5.05;;;10.60;90.40;;;;;;5047760;28;20485;-76
2023/04/01 02:33:38;;;;;;;5.40;4.45;;;10.60;90.40;;;;;;5048033;28;20054;-76
2023/04/01 02:36:05;;;;;;;5.50;4.55;;;10.60;90.40;;;;;;5047084;28;20044;-76
2023/04/01 02:38:31;;;;;;;6.10;4.57;;;10.60;90.40;;;;;;5030929;28;20053;-76
2023/04/01 02:41:00;;;;;;;6.63;4.57;;;10.60;90.40;;;;;;5014441;28;20038;-76
2023/04/01 02:43:26;;;;;;;6.63;4.65;;;10.60;90.40;;;;;;5014670;28;20053;-76
2023/04/01 02:45:52;;;;;;;7.30;4.95;;;10.60;90.40;;;;;;4997260;28;20042;-76
2023/04/01 02:48:18;;;;;;;6.10;4.90;;;10.60;90.30;;;;;;5030399;28;20059;-76
2023/04/01 02:50:43;;;;;;;6.20;4.20;;;10.60;90.30;;;;;;4997878;28;20042;-76
2023/04/01 02:53:09;;;;;;;6.88;4.50;;;10.60;90.50;;;;;;4998151;28;20045;-76
2023/04/01 02:55:35;;;;;;;6.85;4.28;;;10.70;90.40;;;;;;5014002;28;20042;-76
2023/04/01 02:58:01;;;;;;;5.80;4.78;;;10.60;90.40;;;;;;5013823;28;20034;-76
2023/04/01 03:00:27;;;;;;;6.32;4.88;;;10.60;90.40;;;;;;4981628;28;20045;-76
2023/04/01 03:02:53;;;;;;;5.82;4.80;;;10.60;90.40;;;;;;5002229;28;20128;-76
2023/04/01 03:05:20;;;;;;;5.60;4.57;;;10.60;90.40;;;;;;5027611;28;20046;-76
2023/04/01 03:07:46;;;;;;;6.43;4.75;;;10.60;90.40;;;;;;5013973;28;20097;-76
2023/04/01 03:10:12;;;;;;;6.35;5.00;;;10.60;90.40;;;;;;5046941;28;20049;-76
2023/04/01 03:12:38;;;;;;;8.90;5.18;;;10.70;90.40;;;;;;5046897;28;20041;-76
2023/04/01 03:15:04;;;;;;;6.70;4.90;;;10.70;90.40;;;;;;5046662;28;20061;-76
2023/04/01 03:17:30;;;;;;;6.68;5.60;;;10.70;90.40;;;;;;4981170;28;20374;-76
2023/04/01 03:19:55;;;;;;;7.25;5.10;;;10.70;90.40;;;;;;4997097;28;20037;-77
2023/04/01 03:22:21;;;;;;;6.25;4.78;;;10.70;90.40;;;;;;5013738;28;20073;-77
2023/04/01 03:24:48;;;;;;;6.50;5.13;;;10.70;90.40;;;;;;4999036;28;20080;-76
2023/04/01 03:27:14;;;;;;;7.38;4.85;;;10.70;90.40;;;;;;5013629;28;20450;-76
2023/04/01 03:29:40;;;;;;;6.80;4.80;;;10.70;90.40;;;;;;5013110;28;20046;-76
2023/04/01 03:32:06;;;;;;;7.53;5.00;;;10.70;90.40;;;;;;5029803;28;20044;-76
2023/04/01 03:34:31;;;;;;;7.50;4.97;;;10.70;90.40;;;;;;5029553;28;20046;-76
2023/04/01 03:36:58;;;;;;;8.02;5.35;;;10.70;90.40;;;;;;4997112;28;20057;-76
2023/04/01 03:39:24;;;;;;;5.90;5.28;;;10.70;90.40;;;;;;5013016;28;20096;-77
2023/04/01 03:41:49;;;;;;;8.43;5.30;;;10.70;90.40;;;;;;4997042;28;20042;-77
2023/04/01 03:44:15;;;;;;;6.32;5.13;;;10.70;90.40;;;;;;4996711;28;20388;-76
2023/04/01 03:46:41;;;;;;;6.53;5.70;;;10.70;90.40;;;;;;4997015;28;20115;-76
2023/04/01 03:49:11;;;;;;;7.00;5.18;;;10.70;90.40;;;;;;4979972;28;20100;-76
2023/04/01 03:51:42;;;;;;;8.35;5.07;;;10.70;90.40;;;;;;5045959;28;20154;-76
2023/04/01 03:54:08;;;;;;;6.88;5.65;;;10.80;90.40;;;;;;5045900;28;20088;-76
2023/04/01 03:56:34;;;;;;;6.53;5.25;;;10.80;90.40;;;;;;5016422;28;20046;-76
2023/04/01 03:59:05;;;;;;;7.97;5.82;;;10.80;90.40;;;;;;5045534;28;20038;-76
2023/04/01 04:01:31;;;;;;;8.68;6.35;;;10.80;90.40;;;;;;5029388;28;20507;-76
2023/04/01 04:03:58;;;;;;;9.48;6.13;;;10.80;90.40;;;;;;5028173;28;20053;-76
2023/04/01 04:06:28;;;;;;;8.30;6.60;;;10.80;90.40;;;;;;5032159;28;20060;-76
2023/04/01 04:08:54;;;;;;;9.82;6.50;;;10.80;90.30;;;;;;5058354;28;20049;-76
2023/04/01 04:11:21;;;;;;;9.68;6.25;;;10.80;90.30;;;;;;5016066;28;20041;-76
2023/04/01 04:13:47;;;;;;;8.50;6.15;;;10.80;90.30;;;;;;5016398;28;20420;-76
2023/04/01 04:16:14;;;;;;;7.97;5.78;;;10.70;90.30;;;;;;5032389;28;20048;-76
2023/04/01 04:18:40;;;;;;;9.15;6.60;;;10.80;90.40;;;;;;5048758;28;20037;-76
2023/04/01 04:21:06;;;;;;;6.93;5.43;;;10.80;90.40;;;;;;5015758;28;20496;-76
2023/04/01 04:23:33;;;;;;;7.75;5.80;;;10.70;90.30;;;;;;5046979;28;20037;-76
2023/04/01 04:26:12;;;;;;;7.88;6.18;;;10.80;90.40;;;;;;5053325;28;20534;-76
2023/04/01 04:28:38;;;;;;;8.73;6.15;;;10.80;90.40;;;;;;5019520;28;20043;-76
2023/04/01 04:31:07;;;;;;;7.78;5.90;;;10.70;90.30;;;;;;4996443;28;20041;-76
2023/04/01 04:33:35;;;;;;;6.72;5.82;;;10.70;90.30;;;;;;4980675;28;20396;-76
2023/04/01 04:36:02;;;;;;;8.35;5.90;;;10.70;90.30;;;;;;5024537;28;20041;-76
2023/04/01 04:38:27;;;;;;;7.65;6.05;;;10.70;90.30;;;;;;5045752;28;20497;-76
2023/04/01 04:40:54;;;;;;;8.07;5.78;;;10.70;90.30;;;;;;5015546;28;20120;-76
2023/04/01 04:43:19;;;;;;;7.55;5.93;;;10.70;90.30;;;;;;5015857;28;20041;-76
2023/04/01 04:45:46;;;;;;;7.07;5.68;;;10.70;90.30;;;;;;5028697;28;20410;-76
2023/04/01 04:48:16;;;;;;;7.35;5.82;;;10.70;90.30;;;;;;5019722;28;20045;-76
2023/04/01 04:50:42;;;;;;;8.02;5.30;;;10.70;90.40;;;;;;5015655;28;20041;-76
2023/04/01 04:53:12;;;;;;;7.88;5.95;;;10.70;90.30;;;;;;5015336;28;20053;-76
2023/04/01 04:55:42;;;;;;;7.38;5.68;;;10.70;90.40;;;;;;5011024;28;20049;-76
2023/04/01 04:58:08;;;;;;;8.65;5.75;;;10.70;90.40;;;;;;5038075;28;20120;-76
2023/04/01 05:00:34;;;;;;;8.55;6.18;;;10.70;90.40;;;;;;4998814;28;20120;-76
2023/04/01 05:03:00;;;;;;;8.88;5.88;;;10.60;90.30;;;;;;5015844;28;20116;-76
2023/04/01 05:05:26;;;;;;;8.50;5.65;;;10.70;90.40;;;;;;5064766;28;20075;-76
2023/04/01 05:07:51;;;;;;;7.53;5.95;;;10.70;90.40;;;;;;5015072;28;20049;-76
2023/04/01 05:10:17;;;;;;;7.63;5.90;;;10.60;90.40;;;;;;5014974;28;20041;-76
2023/04/01 05:12:43;;;;;;;8.15;6.07;;;10.60;90.40;;;;;;5031376;28;20041;-76
2023/04/01 05:15:09;;;;;;;7.95;5.72;;;10.60;90.40;;;;;;5052189;28;20099;-76
2023/04/01 05:17:35;;;;;;;9.65;6.40;;;10.70;90.40;;;;;;5060395;28;20049;-76
2023/04/01 05:20:01;;;;;;;8.93;6.13;;;10.60;90.40;;;;;;5014992;28;20037;-76
2023/04/01 05:22:27;;;;;;;9.70;6.07;;;10.60;90.40;;;;;;5015457;28;20370;-76
2023/04/01 05:24:52;;;;;;;10.30;6.40;;;10.70;90.50;;;;;;5000956;28;20037;-76
2023/04/01 05:27:18;;;;;;;8.50;5.93;;;10.60;90.40;;;;;;4998530;28;20480;-76
2023/04/01 05:29:44;;;;;;;9.18;6.43;;;10.60;90.40;;;;;;5031502;28;20116;-76
2023/04/01 05:32:10;;;;;;;8.90;5.50;;;10.60;90.40;;;;;;5048148;28;20095;-76
2023/04/01 05:34:35;;;;;;;8.93;5.70;;;10.70;90.50;;;;;;5017469;28;20033;-76
2023/04/01 05:37:01;;;;;;;10.32;6.30;;;10.60;90.50;;;;;;5052173;28;20037;-76
2023/04/01 05:39:27;;;;;;;8.45;5.40;;;10.60;90.50;;;;;;5014707;28;20041;-76
2023/04/01 05:41:52;;;;;;;8.48;5.22;;;10.60;90.50;;;;;;5014978;28;20037;-76
2023/04/01 05:44:18;;;;;;;8.25;5.10;;;10.60;90.50;;;;;;5031762;28;20038;-76
2023/04/01 05:46:44;;;;;;;7.28;5.18;;;10.60;90.50;;;;;;5015384;28;20037;-76
2023/04/01 05:49:10;;;;;;;6.50;4.55;;;10.60;90.50;;;;;;5048166;28;20503;-76
2023/04/01 05:51:35;;;;;;;6.28;4.68;;;10.60;90.50;;;;;;5035385;28;20491;-76
2023/04/01 05:54:01;;;;;;;6.18;4.78;;;10.60;90.50;;;;;;5014905;28;20046;-76
2023/04/01 05:56:27;;;;;;;7.10;5.43;;;10.60;90.50;;;;;;5006848;28;20408;-76
2023/04/01 05:58:54;;;;;;;7.13;4.78;;;10.70;90.60;;;;;;4998282;28;20052;-76
2023/04/01 06:01:20;;;;;;;9.27;5.03;;;10.70;90.60;;;;;;5047941;28;20076;-76
2023/04/01 06:03:46;;;;;;;8.10;4.68;;;10.60;90.60;;;;;;5056921;28;20064;-76
2023/04/01 06:06:19;;;;;;;7.63;4.80;;;10.60;90.60;;;;;;5032526;28;20136;-76
2023/04/01 06:08:45;;;;;;;7.38;4.65;;;10.70;90.70;;;;;;5018586;28;20037;-76
2023/04/01 06:11:36;;;;;;;6.65;4.50;;;10.60;90.60;;;;;;5014636;28;20124;-76
2023/04/01 06:14:30;;;;;;;6.72;4.38;;;10.70;90.70;;;;;;5031327;28;20387;-76
2023/04/01 06:17:15;;;;;;;6.05;4.15;;;10.70;90.70;;;;;;5031476;28;20102;-76
2023/04/01 06:20:05;;;;;;;6.72;4.30;;;10.70;90.70;;;;;;5039617;28;20064;-76
2023/04/01 06:23:03;;;;;;;6.47;4.10;;;10.70;90.70;;;;;;5023814;28;20037;-76
2023/04/01 06:25:39;;;;;;;6.32;4.25;;;10.70;90.70;;;;;;5051282;28;20053;-76
2023/04/01 06:28:34;;;;;;;6.07;4.15;;;10.60;90.70;;;;;;5050923;28;20053;-76
2023/04/01 06:31:09;;;;;;;5.93;4.07;;;10.70;90.70;;;;;;5018277;28;20132;-76
2023/04/01 06:33:57;;;;;;;5.82;4.05;;;10.70;90.70;;;;;;5017835;28;20049;-76
2023/04/01 06:36:52;;;;;;;7.80;4.50;;;10.70;90.70;;;;;;5033780;28;20404;-77
2023/04/01 06:39:33;;;;;;;6.25;4.20;;;10.70;90.70;;;;;;5017621;28;20512;-76
2023/04/01 06:42:32;;;;;;;7.07;4.90;;;10.70;90.70;;;;;;5017709;28;20048;-76
2023/04/01 06:45:23;;;;;;;5.47;4.10;;;10.70;90.80;;;;;;5020661;28;20071;-76
2023/04/01 06:48:10;;;;;;;5.88;4.47;;;10.70;90.80;;;;;;5023792;28;20046;-75
2023/04/01 06:51:00;;;;;;;6.63;4.70;;;10.80;90.80;;;;;;5033575;28;20080;-75
2023/04/01 06:54:09;;;;;;;8.43;4.78;;;10.80;90.80;;;;;;5027829;28;20037;-75
2023/04/01 06:56:38;;;;;;;7.30;4.72;;;10.80;90.70;;;;;;4974405;28;20164;-76
2023/04/01 06:59:17;;;;;;;7.63;5.05;;;10.80;90.80;;;;;;4958013;28;20113;-76
2023/04/01 07:02:10;;;;;;;6.20;4.10;;;10.80;90.80;;;;;;4994421;28;20077;-76
2023/04/01 07:04:50;;;;;;;7.93;5.07;;;10.80;90.80;;;;;;5017070;28;20053;-76
2023/04/01 07:07:21;;;;;;;7.22;5.45;;;10.80;90.80;;;;;;5017492;28;20069;-76
2023/04/01 07:10:01;;;;;;;9.15;6.18;;;10.80;90.80;;;;;;5003132;28;20048;-76
2023/04/01 07:12:51;;;;;;;9.55;5.85;;;10.80;90.80;;;;;;5017264;28;20103;-76
2023/04/01 07:15:35;;;;;;;6.95;5.40;;;10.90;90.80;;;;;;5023688;28;20548;-76
2023/04/01 07:18:16;;;;;;;8.48;6.13;;;10.90;90.80;;;;;;5040203;28;20045;-76
2023/04/01 07:20:42;;;;;;;8.05;5.80;;;10.90;90.80;;;;;;5050026;28;20041;-76
2023/04/01 07:23:40;;;;;;;6.72;5.10;;;10.90;90.80;;;;;;5050131;28;20037;-76
2023/04/01 07:26:24;;;;;;;8.18;5.22;;;10.90;90.70;;;;;;5041796;28;20084;-76
2023/04/01 07:28:53;;;;;;;7.10;5.15;;;10.90;90.80;;;;;;5025708;28;20041;-76
2023/04/01 07:31:27;;;;;;;8.07;5.63;;;10.90;90.70;;;;;;5032930;28;20047;-76
2023/04/01 07:34:15;;;;;;;8.80;5.90;;;10.90;90.80;;;;;;5004439;28;20090;-76
2023/04/01 07:36:47;;;;;;;4.93;3.78;;;10.90;90.70;;;;;;5036498;28;20037;-82
2023/04/01 07:39:32;;;;;;;5.47;3.95;;;10.90;90.70;;;;;;5002787;28;20069;-77
2023/04/01 07:42:08;;;;;;;5.10;4.07;;;10.90;90.70;;;;;;5019986;28;20120;-76
2023/04/01 07:44:53;;;;;;;6.18;3.92;;;10.90;90.70;;;;;;5014794;28;20135;-77
2023/04/01 07:47:27;;;;;;;4.95;3.92;;;10.90;90.70;;;;;;5019927;28;20040;-76
2023/04/01 07:50:08;;;;;;;4.22;3.13;;;10.90;90.70;;;;;;5000127;28;20050;-77
2023/04/01 07:52:43;;;;;;;4.03;2.78;;;11.00;90.70;;;;;;4999799;28;20125;-77
2023/04/01 07:55:41;;;;;;;4.32;2.78;;;10.90;90.70;;;;;;5015358;28;20052;-77
2023/04/01 07:58:23;;;;;;;3.95;2.88;;;11.00;90.70;;;;;;5008163;28;20045;-77
2023/04/01 08:01:01;;;;;;;3.55;2.67;;;11.00;90.70;;;;;;5015842;28;20039;-77
2023/04/01 08:03:41;;;;;;;4.20;3.10;;;11.00;90.70;;;;;;5032300;28;20053;-77
2023/04/01 08:06:19;;;;;;;4.03;2.80;;;11.00;90.70;;;;;;5032800;28;20063;-77
2023/04/01 08:09:14;;;;;;;5.35;3.95;;;11.00;90.60;;;;;;5016419;28;20133;-80
2023/04/01 08:11:40;;;;;;;;;;;11.00;90.60;;;;;;5015327;28;20107;-76
2023/04/01 08:14:15;;;;;;;6.70;4.00;;;11.00;90.50;;;;;;5015943;28;19921;-77
2023/04/01 08:16:50;;;;;;;5.13;3.97;;;11.00;90.60;;;;;;5015770;28;20041;-77
2023/04/01 08:19:44;;;;;;;6.15;4.75;;;11.00;90.50;;;;;;5015261;28;20045;-77
2023/04/01 08:22:18;;;;;;;6.15;4.78;;;11.00;90.40;;;;;;5015943;28;20514;-76
2023/04/01 08:24:49;;;;;;;6.68;5.35;;;11.00;90.40;;;;;;5015532;28;20084;-77
2023/04/01 08:27:38;;;;;;;7.07;5.22;;;11.00;90.30;;;;;;5048942;28;20385;-77
2023/04/01 08:30:25;;;;;;;7.18;5.53;;;11.00;90.30;;;;;;5016220;28;20033;-77
2023/04/01 08:33:05;;;;;;;7.25;6.10;;;11.00;90.20;;;;;;4999088;28;20040;-77
2023/04/01 08:35:59;;;;;;;8.88;6.80;;;11.00;90.30;;;;;;5010375;28;20133;-76
2023/04/01 08:38:39;;;;;;;9.80;7.20;;;11.00;90.20;;;;;;5010964;28;20041;-77
2023/04/01 08:41:27;;;;;;;9.02;7.10;;;11.00;90.30;;;;;;5032023;28;20549;-77
2023/04/01 08:44:22;;;;;;;10.68;7.80;;;11.00;90.30;;;;;;4998584;28;20062;-76
2023/04/01 08:47:00;;;;;;;10.27;8.30;;;11.00;90.30;;;;;;5015414;28;20047;-77
2023/04/01 08:49:29;;;;;;;12.00;8.77;;;10.90;90.30;;;;;;5015419;28;20284;-77
2023/04/01 08:51:57;;;;;;;10.38;7.97;;;10.90;90.40;;;;;;4999411;28;20045;-77
2023/04/01 08:54:38;;;;;;;11.18;8.70;;;11.00;90.50;;;;;;4999207;28;20084;-77
2023/04/01 08:57:42;;;;;;;10.13;8.10;;;11.00;90.50;;;;;;4998949;28;20056;-77
2023/04/01 09:00:29;;;;;;;11.82;8.27;;;11.00;90.60;;;;;;4994819;28;20496;-77
2023/04/01 09:03:37;;;;;;;10.52;7.90;;;11.10;90.80;;;;;;5015101;28;20107;-77
2023/04/01 09:06:09;;;;;;;11.00;8.45;;;11.10;90.70;;;;;;5015307;28;20128;-76
2023/04/01 09:08:37;;;;;;;10.45;8.40;;;11.10;90.70;;;;;;5015116;28;20120;-76
2023/04/01 09:11:11;;;;;;;12.88;8.85;;;11.20;90.70;;;;;;5015156;28;20049;-76
2023/04/01 09:13:37;;;;;;;8.73;7.30;;;11.20;90.80;;;;;;5015104;28;20048;-77
2023/04/01 09:16:12;;;;;;;11.73;8.52;;;11.20;90.80;;;;;;5015156;28;20045;-77
2023/04/01 09:19:04;;;;;;;10.55;8.45;;;11.20;90.80;;;;;;4998947;28;20428;-77
2023/04/01 09:22:00;;;;;;;11.25;8.35;;;11.20;90.80;;;;;;5015106;28;20120;-77
2023/04/01 09:24:43;;;;;;;11.75;9.20;;;11.30;90.80;;;;;;4980103;28;20047;-77
2023/04/01 09:27:30;;;;;;;10.80;7.82;;;11.30;90.80;;;;;;5031240;28;20384;-77
2023/04/01 09:30:33;;;;;;;9.77;8.07;;;11.30;90.80;;;;;;5048071;28;20041;-77
2023/04/01 09:33:07;;;;;;;11.32;8.70;;;11.40;90.80;;;;;;5013270;28;20053;-77
2023/04/01 09:35:47;;;;;;;10.40;8.45;;;11.40;90.90;;;;;;5031245;28;20057;-77
2023/04/01 09:38:28;;;;;;;9.32;8.30;;;11.40;90.80;;;;;;5047621;28;20036;-75
2023/04/01 09:41:01;;;;;;;11.68;8.57;;;11.50;90.90;;;;;;4998465;28;20041;-75
2023/04/01 09:43:43;;;;;;;10.07;7.78;;;11.50;90.90;;;;;;5015065;28;20444;-74
2023/04/01 09:46:19;;;;;;;7.53;5.85;;;11.60;90.90;;;;;;5014637;28;20041;-75
2023/04/01 09:49:06;;;;;;;6.07;4.95;;;11.60;90.90;;;;;;5015075;28;20068;-75
2023/04/01 09:51:57;;;;;;;6.60;5.15;;;11.70;90.80;;;;;;5015122;28;20046;-75
2023/04/01 09:54:41;;;;;;;8.38;5.97;;;11.70;90.70;;;;;;5031655;28;20033;-78
2023/04/01 09:57:40;;;;;;;7.20;6.30;;;11.70;90.70;;;;;;5002477;28;20084;-75
2023/04/01 10:00:52;;;;;;;7.72;5.95;;;11.70;90.60;;;;;;5018761;28;20427;-76
2023/04/01 10:03:59;;;;;;;7.15;5.63;;;11.70;90.50;;;;;;4971836;28;20086;-75
2023/04/01 10:06:45;;;;;;;6.93;5.57;;;11.80;90.50;;;;;;5038095;28;20099;-76
2023/04/01 10:09:30;;;;;;;8.85;6.75;;;11.90;90.60;;;;;;4998707;28;20049;-76
2023/04/01 10:12:07;;;;;;;;;;;11.90;90.50;;;;;;4999223;28;20038;-76
2023/04/01 10:14:51;;;;;;;11.00;8.15;;;11.90;90.20;;;;;;4999035;28;19921;-76
2023/04/01 10:18:09;;;;;;;10.10;8.40;;;11.90;90.30;;;;;;5001680;28;20107;-75
2023/04/01 10:20:35;;;;;;;9.50;8.27;;;12.00;90.20;;;;;;4982787;28;20047;-76
2023/04/01 10:23:38;;;;;;;10.27;8.13;;;12.00;90.20;;;;;;5018373;28;20402;-76
2023/04/01 10:26:36;;;;;;;10.05;8.65;;;12.00;90.00;;;;;;5001353;28;20037;-76
2023/04/01 10:29:33;;;;;;;9.57;8.43;;;12.10;89.90;;;;;;5009245;28;20037;-75
2023/04/01 10:32:26;;;;;;;9.80;8.25;;;12.10;89.40;;;;;;5002380;28;20509;-76
2023/04/01 10:35:04;;;;;;;10.32;8.82;;;12.10;89.20;;;;;;5050435;28;20099;-76
2023/04/01 10:37:32;;;;;;;9.48;8.48;;;12.00;88.80;;;;;;5018163;28;20041;-76
2023/04/01 10:40:34;;;;;;;10.90;8.90;;;12.10;89.00;;;;;;5017685;28;20033;-76
2023/04/01 10:43:06;;;;;;;10.52;9.27;;;12.10;88.80;;;;;;5017979;28;20053;-76
2023/04/01 10:46:03;;;;;;;11.13;9.18;;;12.10;88.90;;;;;;5001266;28;20049;-76
2023/04/01 10:48:47;;;;;;;12.23;9.95;;;12.20;88.80;;;;;;5034252;28;20423;-76
2023/04/01 10:51:33;;;;;;;12.25;10.32;;;12.20;88.60;;;;;;5036737;28;20050;-75
2023/04/01 10:54:27;;;;;;;10.60;9.30;;;12.20;88.70;;;;;;5017280;28;20053;-76
2023/04/01 10:57:14;;;;;;;11.30;9.52;;;12.20;88.60;;;;;;5017071;28;20042;-76
2023/04/01 10:59:58;;;;;;;11.60;10.38;;;12.20;88.70;;;;;;5017411;28;20087;-76
2023/04/01 11:02:50;;;;;;;11.40;10.00;;;12.30;88.70;;;;;;5017148;28;20480;-76
2023/04/01 11:05:22;;;;;;;6.70;5.43;;;12.30;88.80;;;;;;5006792;28;20049;-76
2023/04/01 11:08:36;;;;;;;6.53;4.70;;;12.20;88.60;;;;;;5020527;28;20045;-75
2023/04/01 11:11:38;;;;;;;5.75;4.22;;;12.20;87.50;;;;;;5008552;28;20531;-76
2023/04/01 11:14:48;;;;;;;4.95;3.60;;;12.20;87.40;;;;;;5004067;28;20041;-76
2023/04/01 11:17:52;;;;;;;5.18;4.28;;;12.10;87.20;;;;;;4983685;28;20049;-76
2023/04/01 11:20:26;;;;;;;5.18;4.28;;;12.00;87.20;;;;;;4960996;28;20043;-75
2023/04/01 11:23:18;;;;;;;6.03;4.28;;;11.90;87.50;;;;;;5011033;28;20046;-76
2023/04/01 11:26:07;;;;;;;5.70;4.00;;;11.90;87.60;;;;;;5033081;28;20135;-75
2023/04/01 11:28:36;;;;;;;7.95;3.92;;;11.80;87.70;;;;;;5033380;28;20037;-76
2023/04/01 11:31:05;;;;;;;5.38;4.30;;;11.80;87.80;;;;;;5016820;28;20115;-76
2023/04/01 11:33:57;;;;;;;5.60;4.70;;;11.70;87.90;;;;;;5016661;28;20049;-76
2023/04/01 11:36:53;;;;;;;6.22;4.85;;;11.70;88.10;;;;;;4999965;28;20075;-76
2023/04/01 11:39:37;;;;;;;5.93;4.72;;;11.60;88.10;;;;;;5016447;28;20041;-75
2023/04/01 11:42:34;;;;;;;5.63;4.63;;;11.60;88.20;;;;;;5016578;28;20124;-75
2023/04/01 11:45:25;;;;;;;6.43;5.15;;;11.60;88.10;;;;;;5016337;28;20045;-76
2023/04/01 11:47:50;;;;;;;5.20;4.65;;;11.50;88.10;;;;;;5017403;28;20042;-76
2023/04/01 11:50:46;;;;;;;6.10;5.13;;;11.50;88.00;;;;;;5000049;28;20052;-76
2023/04/01 11:53:37;;;;;;;5.35;4.60;;;11.50;87.90;;;;;;5024829;28;20042;-76
2023/04/01 11:56:38;;;;;;;4.57;4.07;;;11.50;88.20;;;;;;5042736;28;20373;-76
2023/04/01 11:59:22;;;;;;;5.35;4.35;;;11.40;87.80;;;;;;4993853;28;20393;-76
2023/04/01 12:02:09;;;;;;;6.43;5.00;;;11.40;87.90;;;;;;4993334;28;20117;-76
2023/04/01 12:04:54;;;;;;;5.82;4.65;;;11.40;88.10;;;;;;5022338;28;20073;-76
2023/04/01 12:07:25;;;;;;;5.20;4.57;;;11.40;87.90;;;;;;4990417;28;20045;-76
2023/04/01 12:10:17;;;;;;;4.95;3.83;;;11.30;87.70;;;;;;4990361;28;20077;-79
2023/04/01 12:12:48;;;;;;;4.53;4.03;;;11.30;87.90;;;;;;4990511;28;20033;-80
2023/04/01 12:15:36;;;;;;;4.85;3.78;;;11.30;88.10;;;;;;5006873;28;20033;-81
2023/04/01 12:18:18;;;;;;;3.58;3.05;;;11.20;88.10;;;;;;4989886;28;20046;-80
2023/04/01 12:20:47;;;;;;;3.58;3.05;;;11.20;88.10;;;;;;4990967;28;20038;-80
2023/04/01 12:23:52;;;;;;;3.75;3.35;;;11.20;88.30;;;;;;4989071;28;20073;-80
2023/04/01 12:26:40;;;;;;;4.22;2.78;;;11.20;88.30;;;;;;4988671;28;20050;-80
2023/04/01 12:29:30;;;;;;;3.25;2.55;;;11.20;88.10;;;;;;4989077;28;20068;-80
2023/04/01 12:32:10;;;;;;;3.70;2.95;;;11.20;88.20;;;;;;5002757;28;20505;-82
2023/04/01 12:34:37;;;;;;;4.00;3.33;;;11.10;88.20;;;;;;4986509;28;20060;-81
2023/04/01 12:37:16;;;;;;;3.60;2.88;;;11.10;88.20;;;;;;5019219;28;20050;-80
2023/04/01 12:39:56;;;;;;;3.47;2.92;;;10.90;88.20;;;;;;4986412;28;20124;-81
2023/04/01 12:42:34;;;;;;;3.83;3.10;;;11.10;88.40;;;;;;5002941;28;20109;-81
2023/04/01 12:45:02;;;;;;;3.65;3.10;;;11.10;88.50;;;;;;4986504;28;20052;-81
2023/04/01 12:48:06;;;;;;;5.45;3.47;;;11.10;88.50;;;;;;5016825;28;20042;-81
2023/04/01 12:50:58;;;;;;;5.45;3.63;;;11.10;88.50;;;;;;4985851;28;20038;-80
2023/04/01 12:54:02;;;;;;;4.55;3.50;;;11.20;88.70;;;;;;4985101;28;20076;-79
2023/04/01 12:56:53;;;;;;;4.07;3.40;;;11.10;88.40;;;;;;5002349;28;20496;-79
2023/04/01 12:59:37;;;;;;;5.25;3.60;;;11.20;88.70;;;;;;4985985;28;20064;-79
2023/04/01 13:02:24;;;;;;;4.55;3.58;;;11.20;88.50;;;;;;5002552;28;20393;-80
2023/04/01 13:04:57;;;;;;;4.03;3.22;;;11.10;88.30;;;;;;4985671;28;20054;-79
2023/04/01 13:08:02;;;;;;;4.32;3.83;;;11.20;88.20;;;;;;5002850;28;20049;-79
2023/04/01 13:10:42;;;;;;;4.35;3.55;;;11.10;88.00;;;;;;4972487;28;20049;-80
2023/04/01 13:13:20;;;;;;;4.47;3.83;;;11.10;88.20;;;;;;4985926;28;20052;-80
2023/04/01 13:16:07;;;;;;;5.60;3.95;;;11.10;88.30;;;;;;5018118;28;20169;-79
2023/04/01 13:18:36;;;;;;;6.70;5.45;;;11.10;88.20;;;;;;5033440;28;20164;-80
2023/04/01 13:21:08;;;;;;;3.75;2.88;;;11.10;88.10;;;;;;5002089;28;20041;-80
2023/04/01 13:23:46;;;;;;;4.15;3.53;;;11.10;87.90;;;;;;5001516;28;20037;-80
2023/04/01 13:26:41;;;;;;;3.65;3.03;;;11.10;87.80;;;;;;4986108;28;20041;-79
2023/04/01 13:29:25;;;;;;;;;;;11.00;87.50;;;;;;4986932;28;20049;-80
2023/04/01 13:32:06;;;;;;;3.28;2.75;;;10.90;87.50;;;;;;5038158;28;20364;-80
2023/04/01 13:34:50;;;;;;;5.45;3.03;;;10.90;87.80;;;;;;5022777;28;20136;-80
2023/04/01 13:37:50;;;;;;;3.58;2.63;;;10.90;87.60;;;;;;4989439;28;20045;-79